This is the latest recevied weather packets stored in our database for station/object N6XE-13. If no packets are shown the sender has not sent any weather packets the latest 10 day(s).
| Time | Temp. | Humidity | Pressure | Rain* | Wind** | Luminosity | Snow |
|---|---|---|---|---|---|---|---|
| 1778214606 | 19.44° C | 82% | 1018 hPa | 0 mm | - | - | - |
| 1778212806 | 20° C | 79% | 1017.7 hPa | 0 mm | - | - | - |
| 1778211006 | 21.67° C | 76% | 1017.4 hPa | 0 mm | - | - | - |
| 1778209206 | 23.33° C | 69% | 1017.2 hPa | 0 mm | - | - | - |
| 1778205605 | 27.78° C | 53% | 1016.8 hPa | 0 mm | - | - | - |
| 1778203806 | 29.44° C | 50% | 1016.7 hPa | 0 mm | - | - | - |
| 1778202006 | 30° C | 51% | 1016.9 hPa | 0 mm | - | - | - |
| 1778200208 | 30° C | 52% | 1016.9 hPa | 0 mm | - | - | - |
| 1778198406 | 30° C | 51% | 1017.2 hPa | 0 mm | - | - | - |
| 1778196606 | 30° C | 50% | 1017.4 hPa | 0 mm | - | - | - |
| 1778194807 | 30° C | 50% | 1017.7 hPa | 0 mm | - | - | - |
| 1778193006 | 28.89° C | 52% | 1018.2 hPa | 0 mm | - | - | - |
| 1778191206 | 28.89° C | 53% | 1018.6 hPa | 0 mm | - | - | - |
| 1778189406 | 28.33° C | 54% | 1018.9 hPa | 0 mm | - | - | - |
| 1778187605 | 27.78° C | 55% | 1019.3 hPa | 0 mm | - | - | - |
| 1778185805 | 26.67° C | 60% | 1019.7 hPa | 0 mm | - | - | - |
| 1778184005 | 26.67° C | 60% | 1019.8 hPa | 0 mm | - | - | - |
| 1778182205 | 26.11° C | 61% | 1020.2 hPa | 0 mm | - | - | - |
| 1778178606 | 24.44° C | 64% | 1020.6 hPa | 0 mm | - | - | - |
| 1778176806 | 22.78° C | 68% | 1020.9 hPa | 0 mm | - | - | - |
| 1778175006 | 21.67° C | 71% | 1021 hPa | 0 mm | - | - | - |
| 1778173206 | 20.56° C | 74% | 1021.2 hPa | 0 mm | - | - | - |
| 1778171406 | 19.44° C | 78% | 1021.3 hPa | 0 mm | - | - | - |
| 1778169605 | 18.33° C | 84% | 1021.3 hPa | 0 mm | - | - | - |
| 1778167805 | 16.67° C | 90% | 1021.6 hPa | 0 mm | - | - | - |
* Rain latest hour (hover to see other rain measurements)
** Current wind speed in m/s (hover to see current wind gust speed)